sensor_id;sensor_type;location;lat;lon;timestamp;pressure;altitude;pressure_sealevel;temperature;humidity
13013;BME280;22580;57.670;12.006;2022-07-29T00:01:17;101969.56;;;20.92;100.00
13013;BME280;22580;57.670;12.006;2022-07-29T00:03:45;101960.41;;;20.83;100.00
13013;BME280;22580;57.670;12.006;2022-07-29T00:06:13;101961.56;;;20.81;100.00
13013;BME280;22580;57.670;12.006;2022-07-29T00:08:47;101942.16;;;20.76;100.00
13013;BME280;22580;57.670;12.006;2022-07-29T00:11:16;101969.09;;;20.97;100.00
13013;BME280;22580;57.670;12.006;2022-07-29T00:13:48;101951.31;;;20.75;100.00
13013;BME280;22580;57.670;12.006;2022-07-29T00:16:19;101981.56;;;20.89;100.00
13013;BME280;22580;57.670;12.006;2022-07-29T00:18:58;101937.59;;;20.67;100.00
13013;BME280;22580;57.670;12.006;2022-07-29T00:21:26;101938.31;;;20.59;100.00
13013;BME280;22580;57.670;12.006;2022-07-29T00:23:58;101969.47;;;20.74;100.00
13013;BME280;22580;57.670;12.006;2022-07-29T00:26:25;101981.06;;;20.76;100.00
13013;BME280;22580;57.670;12.006;2022-07-29T00:28:57;101959.19;;;20.58;100.00
13013;BME280;22580;57.670;12.006;2022-07-29T00:31:28;101975.63;;;20.67;100.00
13013;BME280;22580;57.670;12.006;2022-07-29T00:34:01;101972.47;;;20.61;100.00
13013;BME280;22580;57.670;12.006;2022-07-29T00:36:48;101972.78;;;20.58;100.00
13013;BME280;22580;57.670;12.006;2022-07-29T00:39:16;101932.28;;;20.17;100.00
13013;BME280;22580;57.670;12.006;2022-07-29T00:41:49;101979.94;;;20.50;100.00
13013;BME280;22580;57.670;12.006;2022-07-29T00:44:26;101969.44;;;20.26;100.00
13013;BME280;22580;57.670;12.006;2022-07-29T00:46:56;101965.31;;;20.32;100.00
13013;BME280;22580;57.670;12.006;2022-07-29T00:49:28;101949.84;;;20.03;100.00
13013;BME280;22580;57.670;12.006;2022-07-29T00:51:57;101970.56;;;20.04;100.00
13013;BME280;22580;57.670;12.006;2022-07-29T00:54:26;101968.00;;;19.93;100.00
13013;BME280;22580;57.670;12.006;2022-07-29T00:56:55;101968.56;;;19.96;100.00
13013;BME280;22580;57.670;12.006;2022-07-29T00:59:24;101962.69;;;19.82;100.00
13013;BME280;22580;57.670;12.006;2022-07-29T01:02:08;101949.06;;;19.62;100.00
13013;BME280;22580;57.670;12.006;2022-07-29T01:04:39;101979.41;;;19.77;100.00
13013;BME280;22580;57.670;12.006;2022-07-29T01:07:07;101977.09;;;19.73;100.00
13013;BME280;22580;57.670;12.006;2022-07-29T01:09:37;101983.25;;;19.75;100.00
13013;BME280;22580;57.670;12.006;2022-07-29T01:12:06;101974.03;;;19.56;100.00
13013;BME280;22580;57.670;12.006;2022-07-29T01:14:40;101965.47;;;19.30;100.00
13013;BME280;22580;57.670;12.006;2022-07-29T01:17:21;101973.78;;;19.39;100.00
13013;BME280;22580;57.670;12.006;2022-07-29T01:20:08;101985.81;;;19.46;100.00
13013;BME280;22580;57.670;12.006;2022-07-29T01:23:08;101950.56;;;19.15;100.00
13013;BME280;22580;57.670;12.006;2022-07-29T01:26:09;101992.50;;;19.42;100.00
13013;BME280;22580;57.670;12.006;2022-07-29T01:29:13;101990.06;;;19.39;100.00
13013;BME280;22580;57.670;12.006;2022-07-29T01:31:54;101981.78;;;19.40;100.00
13013;BME280;22580;57.670;12.006;2022-07-29T01:34:25;101988.03;;;19.31;100.00
13013;BME280;22580;57.670;12.006;2022-07-29T01:37:03;101968.31;;;19.29;100.00
13013;BME280;22580;57.670;12.006;2022-07-29T01:39:36;101992.19;;;19.56;100.00
13013;BME280;22580;57.670;12.006;2022-07-29T01:42:08;101968.91;;;19.32;100.00
13013;BME280;22580;57.670;12.006;2022-07-29T01:44:49;101964.34;;;19.33;100.00
13013;BME280;22580;57.670;12.006;2022-07-29T01:47:20;101985.31;;;19.31;100.00
13013;BME280;22580;57.670;12.006;2022-07-29T01:50:00;101965.84;;;19.16;100.00
13013;BME280;22580;57.670;12.006;2022-07-29T01:52:41;101986.72;;;19.25;100.00
13013;BME280;22580;57.670;12.006;2022-07-29T01:55:31;101987.31;;;19.29;100.00
13013;BME280;22580;57.670;12.006;2022-07-29T01:58:18;101992.03;;;19.57;100.00
13013;BME280;22580;57.670;12.006;2022-07-29T02:01:09;101931.38;;;19.28;100.00
13013;BME280;22580;57.670;12.006;2022-07-29T02:03:57;101987.78;;;19.64;100.00
13013;BME280;22580;57.670;12.006;2022-07-29T02:06:26;101959.81;;;19.43;100.00
13013;BME280;22580;57.670;12.006;2022-07-29T02:08:56;101985.63;;;19.58;100.00
13013;BME280;22580;57.670;12.006;2022-07-29T02:11:25;101974.47;;;19.52;100.00
13013;BME280;22580;57.670;12.006;2022-07-29T02:13:56;101990.91;;;19.60;100.00
13013;BME280;22580;57.670;12.006;2022-07-29T02:16:30;101995.81;;;19.45;100.00
13013;BME280;22580;57.670;12.006;2022-07-29T02:19:06;101997.53;;;19.46;100.00
13013;BME280;22580;57.670;12.006;2022-07-29T02:21:37;101989.34;;;19.37;100.00
13013;BME280;22580;57.670;12.006;2022-07-29T02:24:06;101999.25;;;19.47;100.00
13013;BME280;22580;57.670;12.006;2022-07-29T02:26:33;101991.47;;;19.33;100.00
13013;BME280;22580;57.670;12.006;2022-07-29T02:29:02;101967.41;;;19.19;100.00
13013;BME280;22580;57.670;12.006;2022-07-29T02:31:36;101987.97;;;19.21;100.00
13013;BME280;22580;57.670;12.006;2022-07-29T02:34:08;101986.97;;;19.22;100.00
13013;BME280;22580;57.670;12.006;2022-07-29T02:36:38;102003.34;;;19.11;100.00
13013;BME280;22580;57.670;12.006;2022-07-29T02:39:06;102002.47;;;19.11;100.00
13013;BME280;22580;57.670;12.006;2022-07-29T02:41:41;102000.75;;;19.10;100.00
13013;BME280;22580;57.670;12.006;2022-07-29T02:44:12;102001.75;;;19.09;100.00
13013;BME280;22580;57.670;12.006;2022-07-29T02:46:46;101993.91;;;19.06;100.00
13013;BME280;22580;57.670;12.006;2022-07-29T02:49:31;101995.44;;;19.29;100.00
13013;BME280;22580;57.670;12.006;2022-07-29T02:52:06;101997.94;;;19.42;100.00
13013;BME280;22580;57.670;12.006;2022-07-29T02:54:38;101978.25;;;19.19;100.00
13013;BME280;22580;57.670;12.006;2022-07-29T02:57:39;101991.16;;;19.26;100.00
13013;BME280;22580;57.670;12.006;2022-07-29T03:00:28;101981.66;;;19.11;100.00
13013;BME280;22580;57.670;12.006;2022-07-29T03:03:00;102015.94;;;19.22;100.00
13013;BME280;22580;57.670;12.006;2022-07-29T03:05:37;102014.63;;;19.16;100.00
13013;BME280;22580;57.670;12.006;2022-07-29T03:08:11;101990.94;;;18.88;100.00
13013;BME280;22580;57.670;12.006;2022-07-29T03:10:57;102003.56;;;18.98;100.00
13013;BME280;22580;57.670;12.006;2022-07-29T03:13:27;102001.66;;;18.89;100.00
13013;BME280;22580;57.670;12.006;2022-07-29T03:15:57;102023.28;;;19.10;100.00
13013;BME280;22580;57.670;12.006;2022-07-29T03:18:26;101998.75;;;19.02;100.00
13013;BME280;22580;57.670;12.006;2022-07-29T03:20:59;101975.81;;;18.85;100.00
13013;BME280;22580;57.670;12.006;2022-07-29T03:23:28;102015.16;;;19.10;100.00
13013;BME280;22580;57.670;12.006;2022-07-29T03:25:56;102021.31;;;19.12;100.00
13013;BME280;22580;57.670;12.006;2022-07-29T03:28:24;102025.13;;;19.00;100.00
13013;BME280;22580;57.670;12.006;2022-07-29T03:30:57;102019.50;;;18.92;100.00
13013;BME280;22580;57.670;12.006;2022-07-29T03:33:28;102026.09;;;18.99;100.00
13013;BME280;22580;57.670;12.006;2022-07-29T03:35:57;102012.34;;;18.91;100.00
13013;BME280;22580;57.670;12.006;2022-07-29T03:38:36;101982.56;;;18.70;100.00
13013;BME280;22580;57.670;12.006;2022-07-29T03:41:07;102023.66;;;18.96;100.00
13013;BME280;22580;57.670;12.006;2022-07-29T03:43:38;102022.66;;;18.97;100.00
13013;BME280;22580;57.670;12.006;2022-07-29T03:46:10;102017.25;;;18.97;100.00
13013;BME280;22580;57.670;12.006;2022-07-29T03:48:52;102024.00;;;19.03;100.00
13013;BME280;22580;57.670;12.006;2022-07-29T03:51:27;102021.53;;;18.99;100.00
13013;BME280;22580;57.670;12.006;2022-07-29T03:53:54;102020.19;;;19.15;100.00
13013;BME280;22580;57.670;12.006;2022-07-29T03:56:21;102023.03;;;19.13;100.00
13013;BME280;22580;57.670;12.006;2022-07-29T03:58:49;102016.75;;;19.13;100.00
13013;BME280;22580;57.670;12.006;2022-07-29T04:01:26;102016.28;;;19.08;100.00
13013;BME280;22580;57.670;12.006;2022-07-29T04:04:07;102017.00;;;19.10;100.00
13013;BME280;22580;57.670;12.006;2022-07-29T04:06:40;102022.69;;;19.07;100.00
13013;BME280;22580;57.670;12.006;2022-07-29T04:09:09;101995.72;;;18.95;100.00
13013;BME280;22580;57.670;12.006;2022-07-29T04:11:40;102018.94;;;19.19;100.00
13013;BME280;22580;57.670;12.006;2022-07-29T04:14:20;101977.31;;;18.99;100.00
13013;BME280;22580;57.670;12.006;2022-07-29T04:16:56;102017.13;;;19.29;100.00
13013;BME280;22580;57.670;12.006;2022-07-29T04:19:27;102025.25;;;19.29;100.00
13013;BME280;22580;57.670;12.006;2022-07-29T04:22:00;102020.75;;;19.39;100.00
13013;BME280;22580;57.670;12.006;2022-07-29T04:24:38;101997.44;;;19.27;100.00
13013;BME280;22580;57.670;12.006;2022-07-29T04:27:07;102029.94;;;19.48;100.00
13013;BME280;22580;57.670;12.006;2022-07-29T04:29:39;102013.94;;;19.45;100.00
13013;BME280;22580;57.670;12.006;2022-07-29T04:32:08;102016.72;;;19.54;100.00
13013;BME280;22580;57.670;12.006;2022-07-29T04:34:36;102025.63;;;19.66;100.00
13013;BME280;22580;57.670;12.006;2022-07-29T04:37:07;102023.09;;;19.74;100.00
13013;BME280;22580;57.670;12.006;2022-07-29T04:39:39;102018.25;;;19.78;100.00
13013;BME280;22580;57.670;12.006;2022-07-29T04:42:06;102000.25;;;19.77;100.00
13013;BME280;22580;57.670;12.006;2022-07-29T04:44:39;102023.41;;;19.81;100.00
13013;BME280;22580;57.670;12.006;2022-07-29T04:47:08;101962.53;;;19.43;100.00
13013;BME280;22580;57.670;12.006;2022-07-29T04:49:38;102005.44;;;19.89;100.00
13013;BME280;22580;57.670;12.006;2022-07-29T04:52:07;102024.84;;;19.94;100.00
13013;BME280;22580;57.670;12.006;2022-07-29T04:54:39;102027.72;;;19.93;100.00
13013;BME280;22580;57.670;12.006;2022-07-29T04:57:08;101972.84;;;19.89;100.00
13013;BME280;22580;57.670;12.006;2022-07-29T04:59:40;102012.56;;;20.00;100.00
13013;BME280;22580;57.670;12.006;2022-07-29T05:02:17;101989.28;;;20.07;100.00
13013;BME280;22580;57.670;12.006;2022-07-29T05:04:48;102036.81;;;20.51;100.00
13013;BME280;22580;57.670;12.006;2022-07-29T05:07:17;102030.13;;;20.65;100.00
13013;BME280;22580;57.670;12.006;2022-07-29T05:09:50;102036.66;;;20.82;100.00
13013;BME280;22580;57.670;12.006;2022-07-29T05:12:27;102012.19;;;20.82;100.00
13013;BME280;22580;57.670;12.006;2022-07-29T05:14:59;102000.94;;;20.77;100.00
13013;BME280;22580;57.670;12.006;2022-07-29T05:17:28;101967.06;;;20.61;100.00
13013;BME280;22580;57.670;12.006;2022-07-29T05:19:58;102031.63;;;21.06;100.00
13013;BME280;22580;57.670;12.006;2022-07-29T05:22:27;102013.88;;;21.02;100.00
13013;BME280;22580;57.670;12.006;2022-07-29T05:24:57;102026.47;;;21.22;100.00
13013;BME280;22580;57.670;12.006;2022-07-29T05:27:26;101980.41;;;21.02;100.00
13013;BME280;22580;57.670;12.006;2022-07-29T05:29:53;102037.00;;;21.45;100.00
13013;BME280;22580;57.670;12.006;2022-07-29T05:32:28;101995.53;;;21.33;100.00
13013;BME280;22580;57.670;12.006;2022-07-29T05:34:59;102009.81;;;21.35;100.00
13013;BME280;22580;57.670;12.006;2022-07-29T05:37:27;102031.69;;;21.53;100.00
13013;BME280;22580;57.670;12.006;2022-07-29T05:39:54;102026.09;;;21.54;100.00
13013;BME280;22580;57.670;12.006;2022-07-29T05:42:29;101974.91;;;21.21;100.00
13013;BME280;22580;57.670;12.006;2022-07-29T05:44:58;102005.44;;;21.62;100.00
13013;BME280;22580;57.670;12.006;2022-07-29T05:47:26;102004.34;;;21.72;100.00
13013;BME280;22580;57.670;12.006;2022-07-29T05:49:53;102023.44;;;21.90;100.00
13013;BME280;22580;57.670;12.006;2022-07-29T05:52:28;102028.53;;;22.12;100.00
13013;BME280;22580;57.670;12.006;2022-07-29T05:54:54;102026.28;;;22.26;100.00
13013;BME280;22580;57.670;12.006;2022-07-29T05:57:23;102036.63;;;22.22;100.00
13013;BME280;22580;57.670;12.006;2022-07-29T05:59:54;102024.63;;;22.15;100.00
13013;BME280;22580;57.670;12.006;2022-07-29T06:02:21;102031.03;;;22.41;100.00
13013;BME280;22580;57.670;12.006;2022-07-29T06:04:55;102035.56;;;22.50;100.00
13013;BME280;22580;57.670;12.006;2022-07-29T06:07:29;102033.59;;;22.61;100.00
13013;BME280;22580;57.670;12.006;2022-07-29T06:09:56;102032.25;;;22.65;100.00
13013;BME280;22580;57.670;12.006;2022-07-29T06:12:22;102035.22;;;22.71;100.00
13013;BME280;22580;57.670;12.006;2022-07-29T06:14:49;102026.59;;;22.58;100.00
13013;BME280;22580;57.670;12.006;2022-07-29T06:17:16;102035.53;;;22.68;100.00
13013;BME280;22580;57.670;12.006;2022-07-29T06:19:48;102029.06;;;22.69;100.00
13013;BME280;22580;57.670;12.006;2022-07-29T06:22:17;101995.19;;;22.54;100.00
13013;BME280;22580;57.670;12.006;2022-07-29T06:24:48;102032.41;;;22.63;100.00
13013;BME280;22580;57.670;12.006;2022-07-29T06:27:16;102044.97;;;22.56;100.00
13013;BME280;22580;57.670;12.006;2022-07-29T06:29:48;102037.75;;;22.82;100.00
13013;BME280;22580;57.670;12.006;2022-07-29T06:32:18;102023.06;;;22.66;100.00
13013;BME280;22580;57.670;12.006;2022-07-29T06:34:47;102035.44;;;22.78;100.00
13013;BME280;22580;57.670;12.006;2022-07-29T06:37:21;102029.63;;;22.91;100.00
13013;BME280;22580;57.670;12.006;2022-07-29T06:39:58;101981.50;;;22.81;100.00
13013;BME280;22580;57.670;12.006;2022-07-29T06:42:47;102022.69;;;23.22;100.00
13013;BME280;22580;57.670;12.006;2022-07-29T06:45:16;102003.22;;;23.17;100.00
13013;BME280;22580;57.670;12.006;2022-07-29T06:47:45;102030.06;;;23.56;100.00
13013;BME280;22580;57.670;12.006;2022-07-29T06:50:15;102038.19;;;23.73;100.00
13013;BME280;22580;57.670;12.006;2022-07-29T06:52:48;102035.78;;;23.70;99.97
13013;BME280;22580;57.670;12.006;2022-07-29T06:55:18;102024.06;;;23.86;99.28
13013;BME280;22580;57.670;12.006;2022-07-29T06:57:47;102028.91;;;24.00;98.82
13013;BME280;22580;57.670;12.006;2022-07-29T07:00:14;102026.22;;;24.16;97.88
13013;BME280;22580;57.670;12.006;2022-07-29T07:02:48;102035.47;;;24.24;97.37
13013;BME280;22580;57.670;12.006;2022-07-29T07:05:18;102021.25;;;24.12;97.59
13013;BME280;22580;57.670;12.006;2022-07-29T07:07:46;102039.56;;;24.28;97.07
13013;BME280;22580;57.670;12.006;2022-07-29T07:10:29;102036.22;;;24.50;96.33
13013;BME280;22580;57.670;12.006;2022-07-29T07:12:58;102031.75;;;24.49;95.01
13013;BME280;22580;57.670;12.006;2022-07-29T07:15:28;102020.31;;;24.37;94.48
13013;BME280;22580;57.670;12.006;2022-07-29T07:17:57;102034.69;;;24.56;94.85
13013;BME280;22580;57.670;12.006;2022-07-29T07:23:30;102015.91;;;24.69;93.44
13013;BME280;22580;57.670;12.006;2022-07-29T07:25:58;102036.75;;;24.86;92.70
13013;BME280;22580;57.670;12.006;2022-07-29T07:28:26;102027.72;;;25.02;92.10
13013;BME280;22580;57.670;12.006;2022-07-29T07:30:53;102042.06;;;24.96;91.05
13013;BME280;22580;57.670;12.006;2022-07-29T07:33:29;102037.25;;;24.90;91.03
13013;BME280;22580;57.670;12.006;2022-07-29T07:35:58;102040.16;;;24.80;91.11
13013;BME280;22580;57.670;12.006;2022-07-29T07:38:27;102009.22;;;24.79;90.40
13013;BME280;22580;57.670;12.006;2022-07-29T07:41:09;102040.38;;;25.03;89.51
13013;BME280;22580;57.670;12.006;2022-07-29T07:43:37;102038.31;;;24.97;89.25
13013;BME280;22580;57.670;12.006;2022-07-29T07:46:04;102032.84;;;25.05;88.62
13013;BME280;22580;57.670;12.006;2022-07-29T07:48:31;102036.91;;;25.17;87.82
13013;BME280;22580;57.670;12.006;2022-07-29T07:51:08;102036.41;;;25.13;88.41
13013;BME280;22580;57.670;12.006;2022-07-29T07:53:37;102045.59;;;25.29;87.36
13013;BME280;22580;57.670;12.006;2022-07-29T07:56:09;102031.59;;;25.15;87.33
13013;BME280;22580;57.670;12.006;2022-07-29T07:58:37;102046.81;;;25.26;87.34
13013;BME280;22580;57.670;12.006;2022-07-29T08:01:04;102006.34;;;25.05;87.64
13013;BME280;22580;57.670;12.006;2022-07-29T08:03:30;102039.28;;;25.28;86.94
13013;BME280;22580;57.670;12.006;2022-07-29T08:05:57;102037.06;;;25.32;86.71
13013;BME280;22580;57.670;12.006;2022-07-29T08:08:28;102031.69;;;25.55;86.27
13013;BME280;22580;57.670;12.006;2022-07-29T08:10:58;101984.16;;;25.39;83.82
13013;BME280;22580;57.670;12.006;2022-07-29T08:13:28;102051.13;;;25.84;84.18
13013;BME280;22580;57.670;12.006;2022-07-29T08:15:58;102043.22;;;25.97;83.87
13013;BME280;22580;57.670;12.006;2022-07-29T08:18:30;102046.47;;;26.24;81.39
13013;BME280;22580;57.670;12.006;2022-07-29T08:20:58;102040.94;;;26.01;80.03
13013;BME280;22580;57.670;12.006;2022-07-29T08:23:25;102027.16;;;25.86;81.79
13013;BME280;22580;57.670;12.006;2022-07-29T08:26:00;102048.09;;;26.10;80.62
13013;BME280;22580;57.670;12.006;2022-07-29T08:28:37;102031.47;;;25.80;81.36
13013;BME280;22580;57.670;12.006;2022-07-29T08:31:03;102040.06;;;26.00;81.33
13013;BME280;22580;57.670;12.006;2022-07-29T08:33:30;102043.44;;;26.10;81.71
13013;BME280;22580;57.670;12.006;2022-07-29T08:35:57;102026.19;;;26.02;81.19
13013;BME280;22580;57.670;12.006;2022-07-29T08:38:28;102030.19;;;25.99;81.87
13013;BME280;22580;57.670;12.006;2022-07-29T08:40:58;102032.00;;;26.07;82.01
13013;BME280;22580;57.670;12.006;2022-07-29T08:43:30;102033.03;;;26.06;81.55
13013;BME280;22580;57.670;12.006;2022-07-29T08:46:07;102037.66;;;26.05;80.87
13013;BME280;22580;57.670;12.006;2022-07-29T08:48:39;102036.75;;;26.13;78.87
13013;BME280;22580;57.670;12.006;2022-07-29T08:51:07;102037.25;;;26.17;77.49
13013;BME280;22580;57.670;12.006;2022-07-29T08:53:36;102040.13;;;26.23;78.75
13013;BME280;22580;57.670;12.006;2022-07-29T08:56:11;102039.94;;;26.25;76.97
13013;BME280;22580;57.670;12.006;2022-07-29T08:58:48;102021.47;;;25.96;78.57
13013;BME280;22580;57.670;12.006;2022-07-29T09:01:21;102019.50;;;26.04;78.23
13013;BME280;22580;57.670;12.006;2022-07-29T09:03:58;102041.25;;;25.75;78.37
13013;BME280;22580;57.670;12.006;2022-07-29T09:06:31;102041.59;;;25.72;79.03
13013;BME280;22580;57.670;12.006;2022-07-29T09:09:07;102043.94;;;25.83;79.16
13013;BME280;22580;57.670;12.006;2022-07-29T09:11:39;102046.63;;;25.99;79.17
13013;BME280;22580;57.670;12.006;2022-07-29T09:14:08;102045.84;;;26.13;77.70
13013;BME280;22580;57.670;12.006;2022-07-29T09:16:50;102045.06;;;26.28;74.65
13013;BME280;22580;57.670;12.006;2022-07-29T09:19:21;102048.41;;;26.46;75.13
13013;BME280;22580;57.670;12.006;2022-07-29T09:21:48;102048.00;;;26.57;76.35
13013;BME280;22580;57.670;12.006;2022-07-29T09:24:41;102047.03;;;26.73;76.23
13013;BME280;22580;57.670;12.006;2022-07-29T09:27:22;102046.41;;;26.63;78.48
13013;BME280;22580;57.670;12.006;2022-07-29T09:29:58;102043.72;;;26.32;80.04
13013;BME280;22580;57.670;12.006;2022-07-29T09:32:29;102041.13;;;26.61;78.93
13013;BME280;22580;57.670;12.006;2022-07-29T09:35:15;102043.66;;;26.40;79.94
13013;BME280;22580;57.670;12.006;2022-07-29T09:37:43;102031.72;;;26.33;79.37
13013;BME280;22580;57.670;12.006;2022-07-29T09:40:15;102056.34;;;26.41;79.09
13013;BME280;22580;57.670;12.006;2022-07-29T09:42:42;102056.38;;;26.33;78.50
13013;BME280;22580;57.670;12.006;2022-07-29T09:45:30;102033.41;;;26.34;78.87
13013;BME280;22580;57.670;12.006;2022-07-29T09:47:58;102043.00;;;26.30;80.20
13013;BME280;22580;57.670;12.006;2022-07-29T09:50:37;102027.53;;;26.68;76.53
13013;BME280;22580;57.670;12.006;2022-07-29T09:53:11;102038.06;;;26.56;79.15
13013;BME280;22580;57.670;12.006;2022-07-29T09:55:48;102042.41;;;26.11;80.17
13013;BME280;22580;57.670;12.006;2022-07-29T09:58:18;102042.19;;;25.98;81.20
13013;BME280;22580;57.670;12.006;2022-07-29T10:00:48;102040.81;;;26.25;80.41
13013;BME280;22580;57.670;12.006;2022-07-29T10:03:19;102039.53;;;26.44;81.18
13013;BME280;22580;57.670;12.006;2022-07-29T10:06:03;101992.91;;;25.90;82.01
13013;BME280;22580;57.670;12.006;2022-07-29T10:08:33;102038.94;;;25.95;81.52
13013;BME280;22580;57.670;12.006;2022-07-29T10:11:09;102039.78;;;25.95;81.80
13013;BME280;22580;57.670;12.006;2022-07-29T10:13:37;102034.00;;;25.90;80.03
13013;BME280;22580;57.670;12.006;2022-07-29T10:16:07;102036.22;;;25.87;77.83
13013;BME280;22580;57.670;12.006;2022-07-29T10:18:39;102027.16;;;26.17;77.81
13013;BME280;22580;57.670;12.006;2022-07-29T10:21:06;102036.53;;;26.23;79.32
13013;BME280;22580;57.670;12.006;2022-07-29T10:23:34;102032.34;;;26.43;79.23
13013;BME280;22580;57.670;12.006;2022-07-29T10:26:02;102034.09;;;26.36;79.04
13013;BME280;22580;57.670;12.006;2022-07-29T10:28:38;102034.75;;;26.38;79.53
13013;BME280;22580;57.670;12.006;2022-07-29T10:31:08;102030.94;;;26.47;77.44
13013;BME280;22580;57.670;12.006;2022-07-29T10:33:54;102020.16;;;26.68;77.98
13013;BME280;22580;57.670;12.006;2022-07-29T10:36:41;102015.03;;;26.65;77.06
13013;BME280;22580;57.670;12.006;2022-07-29T10:39:31;102029.84;;;26.56;75.78
13013;BME280;22580;57.670;12.006;2022-07-29T10:42:13;102037.44;;;26.46;75.33
13013;BME280;22580;57.670;12.006;2022-07-29T10:44:46;102012.81;;;26.38;74.81
13013;BME280;22580;57.670;12.006;2022-07-29T10:47:20;102025.03;;;26.58;75.48
13013;BME280;22580;57.670;12.006;2022-07-29T10:49:59;102003.75;;;26.37;75.88
13013;BME280;22580;57.670;12.006;2022-07-29T10:52:57;102026.25;;;26.56;75.42
13013;BME280;22580;57.670;12.006;2022-07-29T10:55:38;102014.91;;;26.59;75.32
13013;BME280;22580;57.670;12.006;2022-07-29T10:58:19;101994.78;;;26.43;75.44
13013;BME280;22580;57.670;12.006;2022-07-29T11:01:28;102007.06;;;26.25;76.57
13013;BME280;22580;57.670;12.006;2022-07-29T11:03:58;101991.91;;;26.06;75.84
13013;BME280;22580;57.670;12.006;2022-07-29T11:07:09;102022.78;;;26.62;75.50
13013;BME280;22580;57.670;12.006;2022-07-29T11:09:37;102008.50;;;26.66;74.23
13013;BME280;22580;57.670;12.006;2022-07-29T11:12:04;102015.16;;;26.87;74.46
13013;BME280;22580;57.670;12.006;2022-07-29T11:14:58;102021.41;;;26.81;72.16
13013;BME280;22580;57.670;12.006;2022-07-29T11:17:28;102008.81;;;26.71;73.44
13013;BME280;22580;57.670;12.006;2022-07-29T11:22:59;102004.13;;;26.57;73.29
13013;BME280;22580;57.670;12.006;2022-07-29T11:25:28;102002.41;;;26.94;73.67
13013;BME280;22580;57.670;12.006;2022-07-29T11:28:10;102001.31;;;27.03;71.13
13013;BME280;22580;57.670;12.006;2022-07-29T11:31:07;102009.47;;;27.11;68.79
13013;BME280;22580;57.670;12.006;2022-07-29T11:33:38;102002.56;;;27.15;69.34
13013;BME280;22580;57.670;12.006;2022-07-29T11:36:10;101998.31;;;27.13;69.43
13013;BME280;22580;57.670;12.006;2022-07-29T11:38:38;101996.41;;;27.13;71.58
13013;BME280;22580;57.670;12.006;2022-07-29T11:41:26;102004.16;;;26.72;70.88
13013;BME280;22580;57.670;12.006;2022-07-29T11:44:01;102012.88;;;26.75;71.44
13013;BME280;22580;57.670;12.006;2022-07-29T11:46:50;102007.03;;;27.16;71.48
13013;BME280;22580;57.670;12.006;2022-07-29T11:49:21;101998.22;;;27.21;70.55
13013;BME280;22580;57.670;12.006;2022-07-29T11:51:58;101982.41;;;27.08;67.38
13013;BME280;22580;57.670;12.006;2022-07-29T11:54:32;102001.88;;;26.98;69.66
13013;BME280;22580;57.670;12.006;2022-07-29T11:57:19;101968.44;;;27.62;69.13
13013;BME280;22580;57.670;12.006;2022-07-29T11:59:49;102006.47;;;27.50;69.63
13013;BME280;22580;57.670;12.006;2022-07-29T12:02:18;101981.19;;;27.25;69.42
13013;BME280;22580;57.670;12.006;2022-07-29T12:04:48;101980.44;;;27.31;69.29
13013;BME280;22580;57.670;12.006;2022-07-29T12:07:16;101997.38;;;27.79;68.66
13013;BME280;22580;57.670;12.006;2022-07-29T12:09:58;101969.88;;;28.15;68.39
13013;BME280;22580;57.670;12.006;2022-07-29T12:12:28;101979.38;;;28.13;64.94
13013;BME280;22580;57.670;12.006;2022-07-29T12:15:16;101992.00;;;27.71;64.79
13013;BME280;22580;57.670;12.006;2022-07-29T12:17:49;101976.91;;;27.82;62.30
13013;BME280;22580;57.670;12.006;2022-07-29T12:20:23;101986.66;;;28.20;62.62
13013;BME280;22580;57.670;12.006;2022-07-29T12:22:50;101980.09;;;28.21;59.90
13013;BME280;22580;57.670;12.006;2022-07-29T12:25:21;101966.56;;;28.62;58.88
13013;BME280;22580;57.670;12.006;2022-07-29T12:27:58;101986.19;;;28.31;59.71
13013;BME280;22580;57.670;12.006;2022-07-29T12:30:40;101989.00;;;28.38;58.33
13013;BME280;22580;57.670;12.006;2022-07-29T12:33:20;101979.66;;;28.18;57.70
13013;BME280;22580;57.670;12.006;2022-07-29T12:35:49;101979.03;;;28.37;58.24
13013;BME280;22580;57.670;12.006;2022-07-29T12:38:17;101986.19;;;28.81;58.11
13013;BME280;22580;57.670;12.006;2022-07-29T12:40:51;101988.78;;;29.10;55.03
13013;BME280;22580;57.670;12.006;2022-07-29T12:43:30;101974.91;;;28.76;54.29
13013;BME280;22580;57.670;12.006;2022-07-29T12:46:13;101975.66;;;28.84;55.33
13013;BME280;22580;57.670;12.006;2022-07-29T12:48:50;101975.00;;;29.10;54.45
13013;BME280;22580;57.670;12.006;2022-07-29T12:51:28;101983.53;;;29.15;52.84
13013;BME280;22580;57.670;12.006;2022-07-29T12:54:09;101976.03;;;29.37;53.18
13013;BME280;22580;57.670;12.006;2022-07-29T12:56:40;101944.47;;;29.05;52.35
13013;BME280;22580;57.670;12.006;2022-07-29T12:59:11;101928.78;;;28.99;53.24
13013;BME280;22580;57.670;12.006;2022-07-29T13:01:51;101983.94;;;29.12;54.55
13013;BME280;22580;57.670;12.006;2022-07-29T13:05:00;101951.25;;;29.37;50.81
13013;BME280;22580;57.670;12.006;2022-07-29T13:07:44;101961.38;;;29.71;50.58
13013;BME280;22580;57.670;12.006;2022-07-29T13:10:41;101953.88;;;29.17;50.65
13013;BME280;22580;57.670;12.006;2022-07-29T13:13:19;101951.09;;;29.11;50.93
13013;BME280;22580;57.670;12.006;2022-07-29T13:16:09;101934.25;;;28.71;51.42